Time;durP1;ratioP1;P1;durP2;ratioP2;P2;SDS_P1;SDS_P2;PMS_P1;PMS_P2;Temp;Humidity;BMP_temperature;BMP_pressure;BME280_temperature;BME280_humidity;BME280_pressure;Samples;Min_cycle;Max_cycle;Signal;HPM_P1;HPM_P2
2023/02/27 00:03:19;;;;;;;10.20;7.10;;;;;;;1.70;82.90;101046.95;180489;1264;59552;-83
2023/02/27 00:07:24;;;;;;;23.80;8.80;;;;;;;1.67;82.73;101050.38;180678;1264;43787;-83
2023/02/27 00:11:27;;;;;;;15.40;8.80;;;;;;;1.69;83.37;101049.44;180676;1264;43982;-83
2023/02/27 00:15:31;;;;;;;22.70;10.50;;;;;;;1.72;82.63;101051.61;180415;1264;43984;-83
2023/02/27 00:19:34;;;;;;;19.20;8.10;;;;;;;1.73;83.47;101049.67;180428;1264;44054;-82
2023/02/27 00:23:37;;;;;;;19.70;8.80;;;;;;;1.70;83.04;101052.70;180624;1264;59785;-82
2023/02/27 00:27:40;;;;;;;13.40;8.50;;;;;;;1.69;82.85;101051.20;180546;1265;44157;-82
2023/02/27 00:31:43;;;;;;;17.20;7.40;;;;;;;1.73;82.99;101052.45;180604;1268;44203;-82
2023/02/27 00:36:00;;;;;;;13.30;7.90;;;;;;;1.75;83.23;101058.67;180415;1264;44251;-83
2023/02/27 00:40:04;;;;;;;11.50;6.30;;;;;;;1.75;83.26;101056.77;180429;1264;43837;-83
2023/02/27 00:44:07;;;;;;;10.00;6.20;;;;;;;1.75;83.45;101059.05;180557;1264;58262;-83
2023/02/27 00:48:10;;;;;;;11.20;6.00;;;;;;;1.64;83.61;101056.27;180425;1264;43942;-83
2023/02/27 00:52:13;;;;;;;9.90;7.90;;;;;;;1.54;84.11;101054.77;180648;1264;43952;-82
2023/02/27 00:56:16;;;;;;;11.80;8.80;;;;;;;1.52;84.19;101055.77;180588;1264;43772;-83
2023/02/27 01:00:19;;;;;;;12.00;6.10;;;;;;;1.47;84.52;101054.16;180575;1264;43695;-83
2023/02/27 01:04:22;;;;;;;11.30;8.30;;;;;;;1.42;84.39;101050.27;180657;1264;57091;-83
2023/02/27 01:08:25;;;;;;;13.10;6.90;;;;;;;1.43;84.57;101048.34;180571;1265;43864;-83
2023/02/27 01:12:28;;;;;;;13.40;7.70;;;;;;;1.40;84.08;101048.93;180650;1263;43718;-82
2023/02/27 01:16:31;;;;;;;14.70;8.40;;;;;;;1.38;84.00;101045.00;180546;1264;44034;-83
2023/02/27 01:20:34;;;;;;;11.30;7.20;;;;;;;1.36;83.99;101040.86;180721;1264;43983;-84
2023/02/27 01:24:37;;;;;;;16.30;6.90;;;;;;;1.36;84.62;101040.00;180697;1265;57954;-84
2023/02/27 01:28:40;;;;;;;15.60;8.30;;;;;;;1.20;85.37;101042.04;180525;1264;44516;-83
2023/02/27 01:32:43;;;;;;;14.20;7.40;;;;;;;1.02;85.31;101039.95;180655;1264;43798;-84
2023/02/27 01:36:46;;;;;;;12.80;8.90;;;;;;;1.07;85.96;101048.91;180725;1264;43768;-84
2023/02/27 01:40:49;;;;;;;9.60;5.50;;;;;;;1.17;86.99;101053.48;180568;1264;44007;-84
2023/02/27 01:45:10;;;;;;;13.70;6.50;;;;;;;1.30;85.89;101052.77;180653;1264;59913;-84
2023/02/27 01:49:19;;;;;;;16.30;6.70;;;;;;;1.42;85.44;101053.77;180589;1264;43842;-84
2023/02/27 01:53:25;;;;;;;13.50;6.90;;;;;;;1.49;85.32;101061.25;180625;1264;44048;-83
2023/02/27 01:57:28;;;;;;;12.30;6.30;;;;;;;1.50;85.12;101066.64;180610;1264;44042;-83
2023/02/27 02:01:33;;;;;;;26.00;8.50;;;;;;;1.59;84.32;101068.11;180646;1264;44050;-83
2023/02/27 02:05:36;;;;;;;20.90;8.70;;;;;;;1.63;83.77;101065.17;180515;1264;58374;-83
2023/02/27 02:09:44;;;;;;;10.90;6.20;;;;;;;1.67;83.80;101069.25;180684;1264;43806;-83
2023/02/27 02:13:52;;;;;;;13.50;7.00;;;;;;;1.68;83.56;101068.69;180644;1264;43845;-83
2023/02/27 02:18:10;;;;;;;12.00;8.90;;;;;;;1.74;83.19;101066.94;180675;1264;44101;-83
2023/02/27 02:22:31;;;;;;;22.60;8.60;;;;;;;1.76;82.36;101063.55;180499;1264;43802;-82
2023/02/27 02:27:06;;;;;;;11.20;7.50;;;;;;;1.75;81.95;101064.29;180647;1264;58296;-82
2023/02/27 02:31:09;;;;;;;12.20;7.10;;;;;;;1.67;81.69;101067.17;180648;1264;43774;-83
2023/02/27 02:35:45;;;;;;;17.80;7.90;;;;;;;1.67;81.88;101062.77;180640;1263;44192;-83
2023/02/27 02:39:58;;;;;;;18.40;8.80;;;;;;;1.66;82.26;101062.82;180608;1264;43774;-83
2023/02/27 02:44:19;;;;;;;11.90;8.10;;;;;;;1.62;82.10;101062.24;180686;1264;43826;-83
2023/02/27 02:48:36;;;;;;;13.40;8.30;;;;;;;1.53;81.63;101063.19;180669;1264;58221;-84
2023/02/27 02:52:53;;;;;;;12.70;7.30;;;;;;;1.47;82.37;101066.05;180652;1264;44184;-84
2023/02/27 02:57:07;;;;;;;7.20;5.70;;;;;;;1.44;82.35;101067.54;180590;1264;43803;-84
2023/02/27 03:01:25;;;;;;;12.30;5.70;;;;;;;1.46;82.54;101068.87;180601;1264;43959;-84
2023/02/27 03:05:40;;;;;;;8.90;5.60;;;;;;;1.43;82.18;101078.05;180725;1264;43782;-83
2023/02/27 03:09:56;;;;;;;10.20;4.70;;;;;;;1.42;82.25;101087.67;180581;1264;59750;-83
2023/02/27 03:14:07;;;;;;;14.00;5.20;;;;;;;1.44;82.08;101089.55;180527;1263;44247;-83
2023/02/27 03:18:19;;;;;;;5.20;4.20;;;;;;;1.47;81.49;101095.05;180547;1264;44134;-83
2023/02/27 03:22:29;;;;;;;9.10;4.50;;;;;;;1.51;81.20;101103.34;180530;1263;43719;-83
2023/02/27 03:26:37;;;;;;;11.70;5.70;;;;;;;1.48;81.15;101104.46;180510;1264;44011;-83
2023/02/27 03:30:50;;;;;;;10.40;3.80;;;;;;;1.46;81.94;101107.50;180655;1263;59276;-83
2023/02/27 03:34:53;;;;;;;10.30;3.30;;;;;;;1.45;81.76;101109.98;180535;1264;44276;-83
2023/02/27 03:39:04;;;;;;;10.40;5.40;;;;;;;1.52;81.80;101112.05;180696;1263;44029;-83
2023/02/27 03:43:19;;;;;;;11.30;5.90;;;;;;;1.57;81.31;101116.44;180689;1263;43957;-83
2023/02/27 03:47:23;;;;;;;8.80;6.50;;;;;;;1.60;80.75;101118.08;180525;1264;43908;-83
2023/02/27 03:51:27;;;;;;;9.70;5.80;;;;;;;1.62;80.97;101118.88;180555;1263;59814;-83
2023/02/27 03:55:38;;;;;;;14.30;7.50;;;;;;;1.65;81.41;101125.27;180492;1264;44126;-83
2023/02/27 03:59:42;;;;;;;14.50;7.80;;;;;;;1.72;81.48;101122.95;180481;1263;43813;-83
2023/02/27 04:03:52;;;;;;;10.40;5.70;;;;;;;1.72;80.58;101124.90;180634;1264;43907;-85
2023/02/27 04:08:24;;;;;;;11.40;5.40;;;;;;;1.61;81.13;101129.23;180604;1263;44571;-85
2023/02/27 04:12:36;;;;;;;5.70;3.10;;;;;;;1.53;82.05;101128.61;180548;1263;57999;-85
2023/02/27 04:17:22;;;;;;;10.10;3.90;;;;;;;1.48;81.80;101131.73;180674;1263;44190;-86
2023/02/27 04:21:52;;;;;;;8.50;3.70;;;;;;;1.53;82.50;101138.73;180513;1265;43910;-85
2023/02/27 04:26:07;;;;;;;10.00;4.30;;;;;;;1.58;82.56;101140.01;180542;1266;43809;-85
2023/02/27 04:30:43;;;;;;;6.20;3.00;;;;;;;1.51;82.85;101142.48;180498;1267;43825;-85
2023/02/27 04:34:58;;;;;;;7.30;3.70;;;;;;;1.47;83.72;101145.23;180559;1265;58352;-85
2023/02/27 04:39:20;;;;;;;5.80;3.90;;;;;;;1.43;84.23;101147.42;180429;1265;44033;-85
2023/02/27 04:43:26;;;;;;;4.80;3.20;;;;;;;1.49;84.33;101150.76;180493;1266;44260;-85
2023/02/27 04:47:37;;;;;;;4.80;4.10;;;;;;;1.49;84.58;101153.73;180535;1265;44570;-85
2023/02/27 04:51:50;;;;;;;11.60;3.90;;;;;;;1.46;84.84;101154.52;180444;1266;43790;-86
2023/02/27 04:56:00;;;;;;;5.40;3.10;;;;;;;1.31;84.12;101158.45;180419;1265;57940;-86
2023/02/27 05:00:07;;;;;;;5.90;3.30;;;;;;;1.23;84.57;101159.72;180037;1265;538180;-85
2023/02/27 05:04:14;;;;;;;4.30;2.80;;;;;;;1.18;85.04;101167.91;180388;1265;44245;-83
2023/02/27 05:08:23;;;;;;;4.20;3.20;;;;;;;1.12;85.26;101173.65;180490;1265;43738;-84
2023/02/27 05:12:35;;;;;;;9.10;3.40;;;;;;;1.09;84.99;101180.92;180542;1265;43916;-84
2023/02/27 05:16:45;;;;;;;4.80;3.20;;;;;;;1.16;84.85;101182.98;180341;1264;61285;-84
2023/02/27 05:21:05;;;;;;;4.90;3.70;;;;;;;1.19;84.60;101188.17;180609;1264;43796;-84
2023/02/27 05:25:14;;;;;;;4.40;3.60;;;;;;;1.19;84.25;101198.13;180893;1265;43767;-84
2023/02/27 05:29:30;;;;;;;15.80;3.80;;;;;;;1.14;84.32;101198.23;180597;1265;43756;-84
2023/02/27 05:34:04;;;;;;;7.10;3.40;;;;;;;1.09;84.25;101201.17;180459;1265;44112;-84
2023/02/27 05:38:07;;;;;;;8.00;4.10;;;;;;;1.07;84.91;101201.06;180469;1265;58281;-84
2023/02/27 05:42:17;;;;;;;5.80;3.70;;;;;;;1.07;84.77;101202.48;180562;1265;43871;-84
2023/02/27 05:46:25;;;;;;;9.30;4.50;;;;;;;1.00;84.95;101209.98;180587;1265;44079;-85
2023/02/27 05:50:32;;;;;;;8.20;3.60;;;;;;;0.99;85.02;101214.36;180335;1265;43813;-83
2023/02/27 05:54:50;;;;;;;6.50;3.10;;;;;;;0.96;85.82;101218.27;180511;1265;44008;-83
2023/02/27 05:58:59;;;;;;;6.50;5.10;;;;;;;1.01;87.52;101229.52;180495;1265;59262;-84
2023/02/27 06:03:02;;;;;;;10.50;5.00;;;;;;;1.08;86.42;101229.00;180455;1264;43762;-84
2023/02/27 06:07:06;;;;;;;8.60;4.50;;;;;;;1.11;86.39;101229.95;180504;1265;43710;-83
2023/02/27 06:11:12;;;;;;;8.90;3.80;;;;;;;1.11;85.98;101235.88;180436;1265;43898;-84
2023/02/27 06:15:16;;;;;;;5.50;3.50;;;;;;;1.08;85.50;101239.29;180361;1266;43761;-83
2023/02/27 06:19:19;;;;;;;5.90;3.20;;;;;;;1.15;85.54;101239.98;180526;1265;58229;-84
2023/02/27 06:23:22;;;;;;;7.30;3.80;;;;;;;1.16;85.76;101235.23;180561;1265;44023;-83
2023/02/27 06:27:27;;;;;;;8.10;3.60;;;;;;;1.13;86.49;101237.07;180546;1265;44201;-83
2023/02/27 06:31:30;;;;;;;6.70;5.30;;;;;;;1.10;86.39;101237.31;180236;1265;43983;-84
2023/02/27 06:35:33;;;;;;;10.90;6.10;;;;;;;1.11;86.14;101237.11;180578;1265;44114;-83
2023/02/27 06:39:41;;;;;;;9.90;5.10;;;;;;;1.15;85.89;101234.38;180408;1267;56929;-90
2023/02/27 06:43:54;;;;;;;12.80;4.90;;;;;;;1.20;85.93;101236.86;180578;1261;43893;-84
2023/02/27 06:47:57;;;;;;;9.50;5.10;;;;;;;1.26;85.42;101240.20;180429;1266;43646;-83
2023/02/27 06:52:00;;;;;;;17.20;7.20;;;;;;;1.22;84.65;101245.72;180541;1266;43786;-83
2023/02/27 06:56:03;;;;;;;10.70;4.00;;;;;;;1.27;84.13;101249.80;180535;1265;44233;-83
2023/02/27 07:00:07;;;;;;;9.00;3.60;;;;;;;1.24;84.16;101250.58;180361;1267;59264;-83
2023/02/27 07:04:12;;;;;;;11.00;5.30;;;;;;;1.18;85.29;101257.02;180493;1265;43825;-83
2023/02/27 07:08:16;;;;;;;5.80;4.60;;;;;;;1.19;85.38;101255.79;180540;1266;44115;-83
2023/02/27 07:12:19;;;;;;;8.60;5.80;;;;;;;1.30;85.74;101264.74;180640;1265;43920;-83
2023/02/27 07:16:22;;;;;;;10.10;4.90;;;;;;;1.43;85.62;101265.27;180520;1266;44017;-83
2023/02/27 07:20:26;;;;;;;7.90;5.70;;;;;;;1.47;85.40;101266.37;180432;1265;58185;-83
2023/02/27 07:24:29;;;;;;;5.30;4.20;;;;;;;1.54;84.21;101269.31;180646;1265;43781;-83
2023/02/27 07:28:32;;;;;;;6.30;3.90;;;;;;;1.66;84.17;101271.64;180563;1265;44099;-83
2023/02/27 07:32:35;;;;;;;4.90;4.30;;;;;;;1.79;84.02;101273.84;180539;1265;44055;-83
2023/02/27 07:36:38;;;;;;;10.10;4.80;;;;;;;1.81;83.53;101275.73;180499;1265;44062;-83
2023/02/27 07:40:41;;;;;;;6.30;4.30;;;;;;;1.94;84.16;101281.47;180500;1266;58315;-83
2023/02/27 07:44:44;;;;;;;11.00;5.70;;;;;;;2.04;83.60;101281.71;180513;1265;43961;-83
2023/02/27 07:48:47;;;;;;;10.90;5.10;;;;;;;2.19;82.68;101282.30;180305;1265;43837;-83
2023/02/27 07:52:51;;;;;;;4.30;3.50;;;;;;;2.36;83.07;101282.84;180676;1265;44178;-83
2023/02/27 07:56:54;;;;;;;8.00;5.40;;;;;;;2.64;82.02;101285.09;180314;1265;44145;-84
2023/02/27 08:01:01;;;;;;;9.00;4.40;;;;;;;2.84;81.26;101289.33;180868;1264;59267;-91
2023/02/27 08:05:09;;;;;;;6.50;4.70;;;;;;;3.02;79.86;101292.61;180902;1265;44104;-92
2023/02/27 08:09:46;;;;;;;14.90;5.80;;;;;;;3.03;79.76;101291.70;180791;1265;43646;-91
2023/02/27 08:13:49;;;;;;;15.10;5.40;;;;;;;3.00;78.51;101296.34;180228;1267;43854;-86
2023/02/27 08:18:08;;;;;;;10.80;6.70;;;;;;;3.05;78.78;101301.08;179957;1270;43925;-86
2023/02/27 08:22:13;;;;;;;8.80;4.80;;;;;;;2.82;79.40;101302.36;179812;1268;60470;-86
2023/02/27 08:26:17;;;;;;;7.70;5.60;;;;;;;2.76;80.83;101304.14;179852;1268;43815;-86
2023/02/27 08:30:21;;;;;;;7.70;5.50;;;;;;;3.00;79.41;101308.77;179940;1270;53647;-86
2023/02/27 08:34:25;;;;;;;10.50;5.50;;;;;;;3.17;79.10;101308.05;180119;1268;43741;-86
2023/02/27 08:38:29;;;;;;;10.00;6.00;;;;;;;3.35;78.44;101313.40;180190;1268;43731;-86
2023/02/27 08:42:32;;;;;;;12.80;6.00;;;;;;;3.41;78.94;101306.87;179811;1268;58521;-86
2023/02/27 08:46:36;;;;;;;10.40;5.40;;;;;;;3.25;78.56;101314.59;179997;1270;43767;-86
2023/02/27 08:50:39;;;;;;;6.50;4.00;;;;;;;3.23;79.17;101312.58;180225;1268;43802;-86
2023/02/27 08:54:42;;;;;;;10.10;5.90;;;;;;;3.42;77.24;101312.61;179843;1268;44292;-86
2023/02/27 08:58:47;;;;;;;10.60;5.30;;;;;;;3.48;78.05;101316.79;179827;1268;44017;-86
2023/02/27 09:02:50;;;;;;;11.10;5.20;;;;;;;3.47;77.34;101330.14;179912;1269;59302;-86
2023/02/27 09:06:54;;;;;;;9.00;4.50;;;;;;;3.58;77.76;101329.95;179987;1268;43930;-86
2023/02/27 09:10:57;;;;;;;11.30;6.00;;;;;;;3.75;76.90;101325.83;179999;1268;44101;-86
2023/02/27 09:15:01;;;;;;;7.80;5.60;;;;;;;3.80;76.67;101332.31;179860;1270;43837;-86
2023/02/27 09:19:04;;;;;;;10.40;6.10;;;;;;;3.82;77.11;101335.21;179984;1272;44159;-86
2023/02/27 09:23:08;;;;;;;12.50;5.10;;;;;;;3.87;76.64;101339.27;180094;1268;58826;-86
2023/02/27 09:27:12;;;;;;;12.20;5.90;;;;;;;3.92;75.23;101343.83;180066;1270;43717;-86
2023/02/27 09:31:17;;;;;;;5.80;4.90;;;;;;;4.01;75.28;101343.30;180274;1268;44162;-86
2023/02/27 09:35:20;;;;;;;5.80;5.10;;;;;;;4.08;76.24;101342.84;180149;1268;43927;-87
2023/02/27 09:39:23;;;;;;;8.80;3.30;;;;;;;4.01;75.71;101343.15;179929;1270;44273;-87
2023/02/27 09:43:48;;;;;;;9.40;5.30;;;;;;;4.05;75.09;101343.70;179985;1267;58274;-87
2023/02/27 09:48:24;;;;;;;7.60;4.70;;;;;;;4.20;75.08;101340.34;180213;1268;44130;-86
2023/02/27 09:52:30;;;;;;;9.30;4.60;;;;;;;4.21;76.08;101341.17;180158;1270;43815;-87
2023/02/27 09:56:48;;;;;;;6.00;4.50;;;;;;;4.33;76.27;101345.80;179968;1269;44221;-87
2023/02/27 10:01:04;;;;;;;10.20;5.30;;;;;;;4.40;75.29;101349.04;179934;1270;43806;-87
2023/02/27 10:05:13;;;;;;;8.30;4.50;;;;;;;4.45;75.83;101351.13;179999;1268;58314;-87
2023/02/27 10:09:41;;;;;;;5.30;4.40;;;;;;;4.50;74.74;101351.48;180105;1269;43958;-86
2023/02/27 10:14:00;;;;;;;6.30;4.30;;;;;;;4.60;73.44;101347.56;180211;1268;43806;-87
2023/02/27 10:18:11;;;;;;;6.80;4.70;;;;;;;4.74;73.35;101346.64;180187;1269;43843;-87
2023/02/27 10:22:42;;;;;;;6.00;4.70;;;;;;;4.86;73.24;101347.57;179869;1270;43813;-87
2023/02/27 10:26:45;;;;;;;8.60;4.30;;;;;;;4.84;73.18;101346.24;180005;1269;59046;-86
2023/02/27 10:30:51;;;;;;;4.60;4.20;;;;;;;4.79;72.50;101347.67;180110;1272;43909;-86
2023/02/27 10:35:05;;;;;;;;;;;;;;;4.77;71.72;101347.42;180202;1269;43993;-87
2023/02/27 10:39:13;;;;;;;6.50;4.20;;;;;;;4.81;72.05;101348.32;179926;1270;43779;-87
2023/02/27 10:43:17;;;;;;;8.90;4.40;;;;;;;4.81;70.46;101348.33;179948;1268;43822;-87
2023/02/27 10:47:23;;;;;;;4.60;3.30;;;;;;;4.87;72.03;101345.95;180085;1271;58133;-87
2023/02/27 10:51:35;;;;;;;6.10;5.20;;;;;;;4.96;71.60;101343.98;180264;1269;43869;-87
2023/02/27 10:55:47;;;;;;;6.10;3.00;;;;;;;5.09;70.91;101342.76;180274;1267;43876;-87
2023/02/27 10:59:54;;;;;;;2.20;2.00;;;;;;;5.16;70.19;101340.02;180045;1270;43938;-87
2023/02/27 11:03:59;;;;;;;3.10;2.10;;;;;;;5.18;69.83;101338.00;179850;1269;44057;-86
2023/02/27 11:08:29;;;;;;;3.70;2.50;;;;;;;5.10;70.44;101331.16;180017;1269;59811;-87
2023/02/27 11:12:34;;;;;;;2.60;1.50;;;;;;;4.99;69.31;101331.59;179964;1268;44081;-87
2023/02/27 11:16:53;;;;;;;4.40;3.30;;;;;;;5.00;67.44;101328.02;180172;1269;44092;-87
2023/02/27 11:21:11;;;;;;;2.00;1.50;;;;;;;5.04;66.56;101324.72;179739;1270;44139;-87
2023/02/27 11:25:23;;;;;;;2.50;2.00;;;;;;;4.98;65.83;101327.41;180150;1268;43882;-87
2023/02/27 11:29:27;;;;;;;6.40;3.50;;;;;;;4.74;69.05;101326.79;180170;1268;59275;-87
2023/02/27 11:33:36;;;;;;;5.50;3.70;;;;;;;4.50;72.31;101325.81;180056;1268;43801;-86
2023/02/27 11:37:40;;;;;;;5.50;3.70;;;;;;;4.31;75.31;101328.15;180026;1269;43752;-87
2023/02/27 11:41:44;;;;;;;3.70;3.30;;;;;;;4.21;74.82;101321.30;179998;1269;44069;-87
2023/02/27 11:45:58;;;;;;;4.50;3.40;;;;;;;4.17;73.77;101320.05;179932;1269;43892;-87
2023/02/27 11:50:30;;;;;;;3.50;2.40;;;;;;;4.08;72.80;101323.20;180072;1269;58444;-87
2023/02/27 11:54:49;;;;;;;3.90;3.60;;;;;;;4.01;73.23;101324.33;180285;1267;43745;-87
2023/02/27 11:59:11;;;;;;;9.00;3.50;;;;;;;4.04;73.53;101321.60;180223;1267;43780;-87
2023/02/27 12:03:26;;;;;;;6.90;5.10;;;;;;;4.02;74.41;101322.91;180179;1269;43882;-86
2023/02/27 12:07:48;;;;;;;9.50;5.00;;;;;;;4.06;74.21;101317.16;180122;1268;43913;-87
2023/02/27 12:11:53;;;;;;;5.10;4.10;;;;;;;4.11;75.98;101318.89;180013;1267;57944;-87
2023/02/27 12:16:06;;;;;;;7.20;3.90;;;;;;;4.16;74.09;101315.90;179637;1267;44134;-87
2023/02/27 12:20:29;;;;;;;6.70;4.40;;;;;;;4.20;74.07;101318.55;180199;1267;44095;-86
2023/02/27 12:24:46;;;;;;;5.20;3.00;;;;;;;4.21;74.52;101324.67;180106;1267;44115;-86
2023/02/27 12:28:57;;;;;;;5.70;2.90;;;;;;;4.13;72.62;101328.83;180016;1268;44103;-87
2023/02/27 12:33:35;;;;;;;6.30;3.60;;;;;;;4.04;73.64;101336.19;179813;1269;59955;-86
2023/02/27 12:37:38;;;;;;;11.30;3.90;;;;;;;3.95;74.71;101338.10;179900;1267;43857;-87
2023/02/27 12:41:50;;;;;;;4.20;3.60;;;;;;;3.94;75.85;101342.01;180256;1268;44067;-87
2023/02/27 12:46:04;;;;;;;5.00;3.10;;;;;;;3.99;76.24;101342.34;180273;1267;43761;-87
2023/02/27 12:50:15;;;;;;;6.20;3.00;;;;;;;4.02;74.98;101336.45;180239;1267;47821;-87
2023/02/27 12:54:19;;;;;;;5.90;3.60;;;;;;;4.10;75.45;101344.72;180060;1269;59634;-87
2023/02/27 12:58:25;;;;;;;8.20;5.10;;;;;;;4.15;74.57;101339.63;180172;1268;43995;-87
2023/02/27 13:02:34;;;;;;;11.50;5.90;;;;;;;4.13;76.55;101341.27;180083;1268;44042;-87
2023/02/27 13:07:03;;;;;;;5.50;4.30;;;;;;;4.06;76.45;101346.08;180118;1268;44192;-87
2023/02/27 13:11:29;;;;;;;7.00;3.30;;;;;;;3.89;75.64;101345.68;180148;1268;43930;-87
2023/02/27 13:15:44;;;;;;;4.40;3.00;;;;;;;3.79;76.36;101347.98;179719;1268;59711;-87
2023/02/27 13:20:10;;;;;;;4.50;3.70;;;;;;;3.78;76.65;101351.70;180049;1268;43951;-86
2023/02/27 13:24:20;;;;;;;3.10;2.80;;;;;;;3.77;76.65;101355.05;179093;1275;44493;-87
2023/02/27 13:28:28;;;;;;;2.90;2.60;;;;;;;3.72;74.73;101352.24;179086;1274;44180;-87
2023/02/27 13:32:44;;;;;;;5.80;4.50;;;;;;;3.83;75.56;101348.37;179012;1274;43930;-87
2023/02/27 13:36:56;;;;;;;4.50;3.80;;;;;;;3.90;75.26;101349.33;178872;1276;59618;-87
2023/02/27 13:41:24;;;;;;;4.70;2.60;;;;;;;3.94;73.81;101346.55;179020;1273;43959;-87
2023/02/27 13:45:53;;;;;;;5.70;3.40;;;;;;;3.96;73.51;101348.61;178938;1276;44310;-87
2023/02/27 13:50:02;;;;;;;7.60;4.80;;;;;;;4.00;72.02;101354.59;179005;1273;43718;-87
2023/02/27 13:54:14;;;;;;;8.80;3.60;;;;;;;3.93;70.73;101356.25;178968;1274;44122;-87
2023/02/27 13:58:23;;;;;;;3.30;2.50;;;;;;;3.89;70.14;101356.73;179100;1273;58473;-87
2023/02/27 14:02:52;;;;;;;2.80;2.60;;;;;;;3.92;69.77;101351.55;179893;1268;44090;-86
2023/02/27 14:07:10;;;;;;;4.60;3.00;;;;;;;3.97;68.93;101359.23;180161;1269;44547;-87
2023/02/27 14:11:16;;;;;;;12.40;5.60;;;;;;;4.03;68.71;101356.93;180151;1267;44214;-87
2023/02/27 14:15:23;;;;;;;4.90;3.50;;;;;;;4.10;68.34;101357.01;179955;1270;43972;-84
2023/02/27 14:20:06;;;;;;;14.40;6.30;;;;;;;4.16;66.18;101363.11;180173;1270;59464;-90
2023/02/27 14:24:16;;;;;;;18.70;9.40;;;;;;;4.23;67.48;101361.63;180455;1267;44456;-90
2023/02/27 14:28:29;;;;;;;12.70;6.60;;;;;;;4.21;66.21;101363.30;180476;1267;44044;-88
2023/02/27 14:32:35;;;;;;;6.10;4.20;;;;;;;4.16;65.02;101366.10;180807;1267;44644;-87
2023/02/27 14:36:51;;;;;;;4.70;3.50;;;;;;;4.11;65.31;101369.08;180451;1266;43717;-87
2023/02/27 14:41:33;;;;;;;3.90;2.70;;;;;;;4.07;65.09;101369.05;180256;1267;58330;-87
2023/02/27 14:45:36;;;;;;;7.30;4.30;;;;;;;4.06;65.69;101378.40;180074;1267;43830;-88
2023/02/27 14:54:51;;;;;;;8.90;5.80;;;;;;;4.09;65.20;101387.94;142608;1286;44426;-87
2023/02/27 14:58:55;;;;;;;5.10;4.10;;;;;;;4.08;65.65;101395.71;180567;1267;43952;-90
2023/02/27 15:03:25;;;;;;;5.40;3.70;;;;;;;4.08;64.30;101398.33;180411;1267;58379;-89
2023/02/27 15:07:32;;;;;;;5.40;4.10;;;;;;;4.06;64.98;101404.05;180513;1266;44040;-90
2023/02/27 15:11:40;;;;;;;3.70;3.30;;;;;;;4.01;65.38;101406.33;180538;1266;44226;-90
2023/02/27 15:15:47;;;;;;;8.20;4.30;;;;;;;3.98;67.30;101409.22;180377;1265;44047;-89
2023/02/27 15:19:55;;;;;;;4.70;4.10;;;;;;;3.93;66.56;101412.94;180500;1266;44624;-89
2023/02/27 15:24:03;;;;;;;12.90;5.70;;;;;;;3.89;65.77;101413.26;180704;1266;59486;-89
2023/02/27 15:28:21;;;;;;;6.00;4.80;;;;;;;3.84;66.75;101411.84;180577;1267;44251;-89
2023/02/27 15:32:28;;;;;;;6.60;4.20;;;;;;;3.85;69.08;101412.67;180729;1266;44129;-89
2023/02/27 15:36:34;;;;;;;4.60;3.70;;;;;;;3.85;70.50;101419.36;180970;1265;43124;-87
2023/02/27 15:40:38;;;;;;;6.40;3.70;;;;;;;3.81;70.49;101424.58;180664;1267;43772;-89
2023/02/27 15:44:44;;;;;;;5.40;4.30;;;;;;;3.82;71.79;101424.34;180550;1265;60310;-90
2023/02/27 15:48:50;;;;;;;5.40;4.90;;;;;;;3.88;72.27;101425.92;180476;1265;45529;-89
2023/02/27 15:53:05;;;;;;;6.40;5.50;;;;;;;3.95;72.38;101430.42;180588;1265;44078;-90
2023/02/27 15:57:09;;;;;;;5.80;4.20;;;;;;;3.97;72.28;101434.73;180610;1267;43806;-90
2023/02/27 16:01:17;;;;;;;6.70;4.20;;;;;;;3.96;71.88;101439.14;180707;1265;43978;-90
2023/02/27 16:05:29;;;;;;;4.80;3.60;;;;;;;3.95;72.66;101443.75;180426;1265;59684;-89
2023/02/27 16:09:35;;;;;;;9.40;5.00;;;;;;;3.93;72.82;101448.19;180556;1265;43838;-88
2023/02/27 16:13:40;;;;;;;5.70;3.40;;;;;;;3.89;73.49;101456.05;180449;1265;43754;-89
2023/02/27 16:18:21;;;;;;;11.90;6.30;;;;;;;3.81;72.37;101462.12;180484;1265;44266;-89
2023/02/27 16:22:25;;;;;;;11.50;6.20;;;;;;;3.73;71.73;101466.27;180542;1267;44181;-89
2023/02/27 16:26:31;;;;;;;16.20;7.60;;;;;;;3.69;70.83;101466.39;180589;1265;58334;-89
2023/02/27 16:30:34;;;;;;;10.10;8.50;;;;;;;3.68;70.80;101471.69;180192;1267;44009;-80
2023/02/27 16:34:41;;;;;;;10.50;7.20;;;;;;;3.69;71.02;101472.01;180275;1267;44257;-81
2023/02/27 16:38:49;;;;;;;11.10;8.20;;;;;;;3.66;71.41;101474.90;180203;1266;44330;-81
2023/02/27 16:42:52;;;;;;;12.10;6.70;;;;;;;3.63;71.68;101478.73;180176;1265;43836;-80
2023/02/27 16:46:57;;;;;;;17.40;10.00;;;;;;;3.60;71.79;101486.36;180298;1266;58023;-80
2023/02/27 16:51:01;;;;;;;17.60;11.50;;;;;;;3.59;72.80;101486.04;180306;1267;43876;-80
2023/02/27 16:55:04;;;;;;;14.70;9.20;;;;;;;3.52;73.61;101490.98;180189;1266;44368;-80
2023/02/27 16:59:27;;;;;;;17.20;10.50;;;;;;;3.48;73.88;101497.98;180225;1267;177047;-80
2023/02/27 17:03:30;;;;;;;12.20;10.10;;;;;;;3.46;73.91;101503.27;180285;1267;43888;-80
2023/02/27 17:07:33;;;;;;;13.30;8.50;;;;;;;3.46;73.99;101505.04;180193;1267;59271;-81
2023/02/27 17:11:35;;;;;;;9.90;7.10;;;;;;;3.48;74.14;101513.58;180354;1267;44021;-81
2023/02/27 17:15:38;;;;;;;13.50;8.90;;;;;;;3.47;74.38;101511.52;180309;1267;43882;-81
2023/02/27 17:19:41;;;;;;;16.40;9.90;;;;;;;3.41;74.20;101511.33;180176;1267;44509;-81
2023/02/27 17:23:45;;;;;;;20.10;13.40;;;;;;;3.36;74.72;101511.33;180335;1267;43990;-81
2023/02/27 17:27:49;;;;;;;22.30;13.70;;;;;;;3.30;74.97;101517.66;180175;1266;57995;-82
2023/02/27 17:31:51;;;;;;;17.40;12.60;;;;;;;3.25;75.58;101523.21;180158;1266;49328;-81
2023/02/27 17:36:06;;;;;;;15.90;8.90;;;;;;;3.28;74.88;101524.88;180239;1267;44278;-81
2023/02/27 17:40:11;;;;;;;15.70;11.10;;;;;;;3.28;74.84;101525.94;180359;1265;44322;-81
2023/02/27 17:44:14;;;;;;;19.60;12.00;;;;;;;3.30;74.57;101529.55;180387;1266;43763;-82
2023/02/27 17:48:17;;;;;;;15.90;11.20;;;;;;;3.30;75.20;101528.15;180380;1267;59501;-82
2023/02/27 17:52:20;;;;;;;22.10;13.10;;;;;;;3.27;75.35;101526.66;180378;1266;44196;-82
2023/02/27 17:56:23;;;;;;;24.10;18.00;;;;;;;3.25;75.16;101527.06;180350;1266;43852;-82
2023/02/27 18:00:26;;;;;;;26.70;14.70;;;;;;;3.29;75.25;101526.79;180321;1267;44111;-82
2023/02/27 18:04:29;;;;;;;20.80;11.90;;;;;;;3.33;75.35;101528.42;180392;1267;44078;-82
2023/02/27 18:08:32;;;;;;;24.50;12.70;;;;;;;3.39;75.19;101527.17;180399;1267;57740;-82
2023/02/27 18:12:35;;;;;;;15.00;11.20;;;;;;;3.44;75.21;101528.09;180094;1266;43768;-80
2023/02/27 18:16:38;;;;;;;11.70;8.90;;;;;;;3.46;75.12;101531.88;180402;1266;43815;-80
2023/02/27 18:20:41;;;;;;;17.90;12.70;;;;;;;3.45;75.23;101529.64;180294;1267;44374;-80
2023/02/27 18:24:44;;;;;;;19.30;9.60;;;;;;;3.42;74.91;101530.60;180221;1265;44156;-80
2023/02/27 18:28:48;;;;;;;16.10;8.90;;;;;;;3.36;74.89;101531.66;180325;1266;58019;-80
2023/02/27 18:32:55;;;;;;;12.90;9.40;;;;;;;3.33;74.79;101533.50;180314;1267;44317;-81
2023/02/27 18:36:58;;;;;;;18.00;9.60;;;;;;;3.30;74.91;101533.79;180154;1267;43989;-81
2023/02/27 18:41:02;;;;;;;11.30;8.60;;;;;;;3.27;74.95;101535.96;180381;1267;44277;-80
2023/02/27 18:45:05;;;;;;;14.90;8.40;;;;;;;3.27;75.62;101540.54;180324;1266;43814;-81
2023/02/27 18:49:08;;;;;;;9.90;7.00;;;;;;;3.26;75.77;101542.67;180258;1266;57705;-80
2023/02/27 18:53:11;;;;;;;10.90;7.00;;;;;;;3.18;75.41;101549.21;180323;1267;44262;-80
2023/02/27 18:57:14;;;;;;;11.60;7.50;;;;;;;3.07;74.78;101550.96;180107;1266;44280;-80
2023/02/27 19:01:28;;;;;;;12.30;10.00;;;;;;;2.92;74.89;101552.96;180219;1266;44237;-80
2023/02/27 19:05:31;;;;;;;22.50;12.40;;;;;;;2.83;74.57;101558.66;180232;1267;44322;-80
2023/02/27 19:09:34;;;;;;;23.50;13.80;;;;;;;2.75;73.12;101561.86;180113;1267;59264;-80
2023/02/27 19:13:37;;;;;;;21.50;13.50;;;;;;;2.70;72.84;101566.21;180160;1266;44142;-80
2023/02/27 19:17:40;;;;;;;20.00;11.40;;;;;;;2.63;72.74;101571.30;180107;1267;43953;-80
2023/02/27 19:21:43;;;;;;;19.10;11.30;;;;;;;2.58;73.01;101573.91;180296;1267;43894;-80